Time;durP1;ratioP1;P1;durP2;ratioP2;P2;SDS_P1;SDS_P2;PMS_P1;PMS_P2;Temp;Humidity;BMP_temperature;BMP_pressure;BME280_temperature;BME280_humidity;BME280_pressure;Samples;Min_cycle;Max_cycle;Signal;HPM_P1;HPM_P2
2021/03/20 00:01:09;;;;;;;11.23;6.70;;;-1.80;99.90;;;;;;5036584;28;20451;-93
2021/03/20 00:03:35;;;;;;;11.70;6.43;;;-1.60;99.90;;;;;;5037234;28;20470;-93
2021/03/20 00:06:02;;;;;;;8.90;5.20;;;-1.60;99.90;;;;;;4982979;28;20453;-92
2021/03/20 00:08:35;;;;;;;11.13;6.80;;;-1.60;99.90;;;;;;5036831;28;20816;-92
2021/03/20 00:11:02;;;;;;;9.67;5.33;;;;;;;;;;5037766;28;20454;-91
2021/03/20 00:13:31;;;;;;;9.47;5.77;;;-1.30;99.90;;;;;;5037786;28;20485;-94
2021/03/20 00:15:57;;;;;;;7.57;5.73;;;-2.00;99.90;;;;;;5020956;28;20464;-91
2021/03/20 00:18:25;;;;;;;11.53;5.63;;;-1.70;99.90;;;;;;4983424;28;20470;-93
2021/03/20 00:20:52;;;;;;;15.00;5.47;;;-1.60;99.90;;;;;;5016049;28;20465;-93
2021/03/20 00:23:19;;;;;;;9.10;5.27;;;;;;;;;;5016584;28;20439;-91
2021/03/20 00:25:46;;;;;;;13.77;6.17;;;-1.80;99.90;;;;;;5016653;28;20507;-93
2021/03/20 00:28:21;;;;;;;10.07;5.80;;;-1.60;99.90;;;;;;5017392;28;20475;-92
2021/03/20 00:30:49;;;;;;;12.77;5.70;;;-1.60;99.90;;;;;;5017529;28;20963;-93
2021/03/20 00:33:15;;;;;;;10.30;6.33;;;-1.80;99.90;;;;;;5016136;28;20495;-92
2021/03/20 00:35:41;;;;;;;11.80;6.27;;;-1.60;99.90;;;;;;5015849;28;20448;-92
2021/03/20 00:38:08;;;;;;;23.43;6.93;;;;;;;;;;5035333;28;20599;-93
2021/03/20 00:40:35;;;;;;;10.23;5.70;;;-1.90;99.90;;;;;;5031133;28;20457;-91
2021/03/20 00:43:02;;;;;;;8.63;5.30;;;-1.90;99.90;;;;;;5032765;28;20460;-92
2021/03/20 00:45:30;;;;;;;7.80;5.13;;;-0.90;99.90;;;;;;5032621;28;20482;-92
2021/03/20 00:48:08;;;;;;;7.47;5.10;;;-1.70;99.90;;;;;;5035547;28;20456;-92
2021/03/20 00:50:35;;;;;;;7.27;5.50;;;;;;;;;;5035648;28;20436;-92
2021/03/20 00:53:01;;;;;;;6.37;4.57;;;-1.60;99.90;;;;;;5035597;28;20480;-92
2021/03/20 00:55:28;;;;;;;8.93;5.40;;;;;;;;;;5035469;28;20451;-94
2021/03/20 00:57:54;;;;;;;8.10;5.40;;;;;;;;;;5034990;28;20795;-91
2021/03/20 01:00:25;;;;;;;8.60;5.60;;;-1.40;99.90;;;;;;5035620;28;20459;-91
2021/03/20 01:02:52;;;;;;;9.23;5.17;;;;;;;;;;5035012;28;20459;-93
2021/03/20 01:05:19;;;;;;;9.23;5.80;;;-1.70;99.90;;;;;;5035159;28;20452;-90
2021/03/20 01:07:46;;;;;;;7.93;5.07;;;-1.50;99.90;;;;;;5035376;28;20437;-91
2021/03/20 01:10:16;;;;;;;9.53;6.53;;;-1.60;99.90;;;;;;5031929;28;20433;-91
2021/03/20 01:12:43;;;;;;;7.37;4.73;;;;;;;;;;5031477;28;20534;-93
2021/03/20 01:15:11;;;;;;;7.00;5.40;;;-1.70;99.90;;;;;;5031801;28;20917;-92
2021/03/20 01:17:38;;;;;;;10.87;6.83;;;-1.60;99.90;;;;;;5034463;28;20908;-91
2021/03/20 01:20:07;;;;;;;9.30;5.73;;;-1.40;99.90;;;;;;4983977;28;20460;-92
2021/03/20 01:22:33;;;;;;;17.03;6.30;;;-1.60;99.90;;;;;;5029107;28;20487;-93
2021/03/20 01:25:00;;;;;;;9.30;5.77;;;-1.50;99.90;;;;;;5035285;28;20782;-92
2021/03/20 01:27:26;;;;;;;10.47;6.20;;;;;;;;;;5029841;28;20444;-92
2021/03/20 01:29:52;;;;;;;11.80;6.03;;;-0.90;99.90;;;;;;5034737;28;20457;-92
2021/03/20 01:32:19;;;;;;;9.47;5.77;;;-1.50;99.90;;;;;;5031609;28;20513;-92
2021/03/20 01:34:46;;;;;;;7.70;5.63;;;-0.30;99.90;;;;;;5034610;28;20544;-92
2021/03/20 01:37:12;;;;;;;10.70;6.20;;;-1.60;99.90;;;;;;5034549;28;20487;-93
2021/03/20 01:39:38;;;;;;;10.83;5.97;;;-1.00;99.90;;;;;;5030317;28;20449;-93
2021/03/20 01:42:06;;;;;;;14.53;6.87;;;-1.40;99.90;;;;;;5033742;28;20450;-93
2021/03/20 01:44:33;;;;;;;9.20;5.60;;;-1.30;99.90;;;;;;5034741;28;20473;-94
2021/03/20 01:47:00;;;;;;;11.67;6.47;;;-1.40;99.90;;;;;;5034166;28;20484;-94
2021/03/20 01:49:32;;;;;;;9.90;6.10;;;-1.50;99.90;;;;;;5031507;28;20438;-93
2021/03/20 01:52:04;;;;;;;8.30;6.03;;;-1.20;99.90;;;;;;5031581;28;20452;-91
2021/03/20 01:54:44;;;;;;;12.33;7.17;;;-1.20;99.90;;;;;;5034494;28;20993;-91
2021/03/20 01:57:13;;;;;;;8.30;5.27;;;-1.20;99.90;;;;;;5030957;28;20455;-92
2021/03/20 01:59:40;;;;;;;10.03;5.00;;;;;;;;;;5034218;28;20441;-91
2021/03/20 02:02:06;;;;;;;7.90;5.90;;;-1.20;99.90;;;;;;5034062;28;20912;-91
2021/03/20 02:04:33;;;;;;;10.27;6.30;;;-1.40;99.90;;;;;;5027583;28;20472;-95
2021/03/20 02:07:00;;;;;;;9.10;5.90;;;-0.90;99.90;;;;;;5034337;28;20454;-91
2021/03/20 02:09:26;;;;;;;8.90;6.40;;;-0.80;99.90;;;;;;5031136;28;20437;-91
2021/03/20 02:12:06;;;;;;;10.50;6.47;;;-1.10;99.90;;;;;;5033504;28;20459;-92
2021/03/20 02:14:44;;;;;;;11.50;7.27;;;-0.90;99.90;;;;;;5030945;28;20481;-93
2021/03/20 02:17:18;;;;;;;7.83;6.33;;;-0.90;99.90;;;;;;5031312;28;20455;-92
2021/03/20 02:20:07;;;;;;;10.20;6.27;;;-1.30;99.90;;;;;;5030911;28;20993;-92
2021/03/20 02:23:12;;;;;;;10.23;7.10;;;-0.90;99.90;;;;;;5033757;28;20430;-92
2021/03/20 02:26:18;;;;;;;7.93;5.33;;;-1.60;99.90;;;;;;4999854;28;20446;-93
2021/03/20 02:29:03;;;;;;;10.10;6.03;;;-0.90;99.90;;;;;;5032009;28;20460;-92
2021/03/20 02:31:43;;;;;;;8.03;5.10;;;-0.60;99.90;;;;;;5038179;28;20447;-91
2021/03/20 02:34:19;;;;;;;9.17;6.80;;;-1.00;99.90;;;;;;5035848;28;20520;-91
2021/03/20 02:36:56;;;;;;;10.40;6.07;;;-0.70;99.90;;;;;;5037686;28;20472;-95
2021/03/20 02:39:31;;;;;;;11.13;6.13;;;-0.60;99.90;;;;;;5038080;28;20439;-92
2021/03/20 02:42:02;;;;;;;10.80;6.40;;;-0.70;99.90;;;;;;5037316;28;20550;-91
2021/03/20 02:44:33;;;;;;;13.23;6.63;;;-0.80;99.90;;;;;;5034857;28;20449;-93
2021/03/20 02:47:01;;;;;;;8.00;6.30;;;-0.60;99.90;;;;;;5037619;28;20537;-92
2021/03/20 02:49:37;;;;;;;10.53;5.93;;;-0.70;99.90;;;;;;5034848;28;20527;-91
2021/03/20 02:52:07;;;;;;;9.77;6.23;;;-0.60;99.90;;;;;;5034670;28;20434;-91
2021/03/20 02:54:40;;;;;;;10.43;6.60;;;-0.60;99.90;;;;;;5037900;28;20487;-92
2021/03/20 02:57:10;;;;;;;10.93;6.23;;;-0.80;99.90;;;;;;5033797;28;20429;-92
2021/03/20 02:59:41;;;;;;;10.37;7.10;;;-1.00;99.90;;;;;;5034170;28;20446;-92
2021/03/20 03:02:11;;;;;;;10.47;7.33;;;-0.60;99.90;;;;;;5037350;28;20429;-93
2021/03/20 03:04:43;;;;;;;10.03;7.10;;;-0.40;99.90;;;;;;5037181;28;20449;-92
2021/03/20 03:07:16;;;;;;;9.53;5.87;;;-0.70;99.90;;;;;;5037240;28;20454;-93
2021/03/20 03:09:47;;;;;;;9.90;6.30;;;-0.50;99.90;;;;;;5037549;28;20442;-91
2021/03/20 03:12:16;;;;;;;10.23;6.37;;;-0.60;99.90;;;;;;5033491;28;20793;-92
2021/03/20 03:14:48;;;;;;;10.03;6.50;;;-0.80;99.90;;;;;;5037318;28;20481;-92
2021/03/20 03:17:16;;;;;;;9.30;6.30;;;-0.60;99.90;;;;;;5033139;28;20432;-92
2021/03/20 03:19:47;;;;;;;8.83;6.97;;;-0.60;99.90;;;;;;5034623;28;20446;-91
2021/03/20 03:22:23;;;;;;;13.40;7.40;;;-0.60;99.90;;;;;;5037389;28;20508;-93
2021/03/20 03:24:53;;;;;;;10.50;7.47;;;-0.60;99.90;;;;;;5034442;28;20556;-93
2021/03/20 03:27:20;;;;;;;9.87;6.67;;;-0.60;99.90;;;;;;5033749;28;20447;-92
2021/03/20 03:29:47;;;;;;;10.07;6.70;;;;;;;;;;5037012;28;20458;-93
2021/03/20 03:32:19;;;;;;;12.60;7.87;;;-0.60;99.90;;;;;;5037337;28;20507;-91
2021/03/20 03:34:54;;;;;;;8.57;6.40;;;-0.50;99.90;;;;;;5033864;28;20913;-92
2021/03/20 03:37:33;;;;;;;9.00;6.30;;;-0.40;99.90;;;;;;5036953;28;20493;-93
2021/03/20 03:40:06;;;;;;;10.73;6.60;;;-0.50;99.90;;;;;;5036879;28;20469;-92
2021/03/20 03:42:34;;;;;;;7.50;6.70;;;;;;;;;;5033371;28;20493;-90
2021/03/20 03:45:08;;;;;;;9.90;6.50;;;-0.40;99.90;;;;;;5036388;28;20468;-91
2021/03/20 03:47:38;;;;;;;9.70;6.77;;;-0.40;99.90;;;;;;5033499;28;20453;-91
2021/03/20 03:50:17;;;;;;;10.80;7.57;;;-0.30;99.90;;;;;;5033197;28;20450;-92
2021/03/20 03:52:47;;;;;;;13.80;8.00;;;;;;;;;;5036486;28;20451;-92
2021/03/20 03:55:14;;;;;;;8.97;6.27;;;;;;;;;;5031501;28;20521;-92
2021/03/20 03:58:19;;;;;;;12.67;7.70;;;-0.40;99.90;;;;;;5035230;28;20454;-91
2021/03/20 04:01:02;;;;;;;12.03;7.43;;;-0.40;99.90;;;;;;5004742;28;20450;-90
2021/03/20 04:03:48;;;;;;;10.37;6.97;;;-0.40;99.90;;;;;;5030464;28;20451;-90
2021/03/20 04:06:32;;;;;;;10.17;7.33;;;-0.40;99.90;;;;;;5035481;28;20506;-92
2021/03/20 04:09:09;;;;;;;9.63;7.50;;;-0.50;99.90;;;;;;5028437;28;20489;-91
2021/03/20 04:11:44;;;;;;;9.10;6.40;;;-0.50;99.90;;;;;;5034857;28;20476;-93
2021/03/20 04:14:16;;;;;;;12.03;8.00;;;-0.50;99.90;;;;;;5035487;28;20484;-91
2021/03/20 04:17:01;;;;;;;12.50;8.13;;;-0.50;99.90;;;;;;5036765;28;20539;-91
2021/03/20 04:19:37;;;;;;;10.43;7.70;;;-0.50;99.90;;;;;;5038524;28;20458;-90
2021/03/20 04:22:47;;;;;;;10.03;7.27;;;-0.20;99.90;;;;;;5036939;28;20488;-92
2021/03/20 04:25:22;;;;;;;8.47;7.00;;;-0.40;99.90;;;;;;5016426;28;20467;-90
2021/03/20 04:27:54;;;;;;;10.23;7.40;;;-0.50;99.90;;;;;;5012999;28;20447;-94
2021/03/20 04:30:24;;;;;;;9.70;6.80;;;-0.60;99.90;;;;;;5016413;28;20442;-93
2021/03/20 04:32:59;;;;;;;9.77;7.20;;;-0.50;99.90;;;;;;5016361;28;20467;-92
2021/03/20 04:35:31;;;;;;;9.60;6.40;;;-0.60;99.90;;;;;;5013926;28;20518;-91
2021/03/20 04:38:00;;;;;;;10.50;7.13;;;-0.60;99.90;;;;;;5012844;28;20547;-91
2021/03/20 04:40:34;;;;;;;10.93;7.10;;;-0.50;99.90;;;;;;5016492;28;20439;-93
2021/03/20 04:43:01;;;;;;;14.90;7.20;;;-0.60;99.90;;;;;;5013080;28;20447;-92
2021/03/20 04:45:31;;;;;;;8.83;6.57;;;-0.70;99.90;;;;;;5013029;28;20451;-90
2021/03/20 04:48:02;;;;;;;9.50;6.93;;;-0.30;99.90;;;;;;5013524;28;20443;-92
2021/03/20 04:50:30;;;;;;;7.67;6.47;;;-0.80;99.90;;;;;;5012716;28;20550;-93
2021/03/20 04:52:59;;;;;;;9.50;7.03;;;-0.50;99.90;;;;;;5015742;28;20456;-93
2021/03/20 04:55:26;;;;;;;10.23;6.37;;;;;;;;;;5013102;28;20452;-91
2021/03/20 04:58:00;;;;;;;9.10;7.50;;;-0.70;99.90;;;;;;5015973;28;20443;-91
2021/03/20 05:00:32;;;;;;;10.40;7.50;;;-0.70;99.90;;;;;;5013503;28;20790;-91
2021/03/20 05:03:06;;;;;;;10.43;7.63;;;-0.40;99.90;;;;;;5013030;28;20465;-91
2021/03/20 05:05:36;;;;;;;11.30;7.50;;;-0.80;99.90;;;;;;5015577;28;20444;-92
2021/03/20 05:08:06;;;;;;;12.27;7.10;;;-0.80;99.90;;;;;;5015571;28;20872;-92
2021/03/20 05:10:39;;;;;;;10.17;7.77;;;-0.20;99.90;;;;;;5012372;28;20467;-91
2021/03/20 05:13:16;;;;;;;9.77;7.10;;;-0.80;99.90;;;;;;5012646;28;20447;-91
2021/03/20 05:15:42;;;;;;;9.57;7.63;;;-0.80;99.90;;;;;;5012813;28;20424;-93
2021/03/20 05:18:09;;;;;;;10.27;7.20;;;-0.80;99.90;;;;;;5016131;28;20436;-94
2021/03/20 05:20:35;;;;;;;11.10;7.70;;;-0.80;99.90;;;;;;4955501;29;20950;-94
2021/03/20 05:23:01;;;;;;;14.13;7.80;;;-1.00;99.90;;;;;;4952859;29;20464;-93
2021/03/20 05:25:28;;;;;;;15.77;8.03;;;-1.20;99.90;;;;;;4953975;29;20437;-91
2021/03/20 05:27:54;;;;;;;16.37;8.57;;;-0.80;99.90;;;;;;4954802;29;21012;-91
2021/03/20 05:30:23;;;;;;;12.13;6.90;;;-0.80;99.90;;;;;;4956667;28;20478;-90
2021/03/20 05:32:50;;;;;;;9.23;6.83;;;;;;;;;;4952172;29;20511;-92
2021/03/20 05:35:23;;;;;;;11.60;8.00;;;-1.00;99.90;;;;;;4952273;29;20490;-93
2021/03/20 05:37:50;;;;;;;10.23;8.00;;;;;;;;;;4955017;29;20478;-92
2021/03/20 05:40:23;;;;;;;13.37;7.37;;;-0.80;99.90;;;;;;4955279;29;20488;-92
2021/03/20 05:43:09;;;;;;;9.63;6.73;;;-0.80;99.90;;;;;;4967378;28;20459;-90
2021/03/20 05:45:50;;;;;;;13.33;7.43;;;-0.80;99.90;;;;;;4994542;28;20491;-91
2021/03/20 05:48:28;;;;;;;10.40;8.13;;;-0.80;99.90;;;;;;5030122;28;20475;-90
2021/03/20 05:51:26;;;;;;;11.03;8.13;;;-0.70;99.90;;;;;;5033942;28;21006;-92
2021/03/20 05:54:21;;;;;;;12.20;7.80;;;-0.70;99.90;;;;;;5026620;28;20571;-90
2021/03/20 05:57:02;;;;;;;12.00;7.93;;;-0.70;99.90;;;;;;5030188;28;20442;-91
2021/03/20 05:59:44;;;;;;;14.10;8.00;;;-0.70;99.90;;;;;;5033993;28;20446;-93
2021/03/20 06:02:51;;;;;;;8.03;6.27;;;-0.70;99.90;;;;;;5030334;28;20473;-92
2021/03/20 06:05:40;;;;;;;12.73;8.03;;;-0.80;99.90;;;;;;5027875;28;20454;-91
2021/03/20 06:08:44;;;;;;;8.97;6.47;;;-0.70;99.90;;;;;;5030904;28;20583;-94
2021/03/20 06:11:35;;;;;;;9.27;6.97;;;-0.60;99.90;;;;;;5027419;28;20473;-90
2021/03/20 06:14:44;;;;;;;9.70;7.40;;;-0.60;99.90;;;;;;5016647;28;20854;-93
2021/03/20 06:17:22;;;;;;;8.90;7.07;;;-0.60;99.90;;;;;;5028785;28;20442;-91
2021/03/20 06:20:21;;;;;;;9.03;7.10;;;-0.50;99.90;;;;;;5028247;28;20457;-92
2021/03/20 06:23:29;;;;;;;10.07;7.70;;;-0.50;99.90;;;;;;5032888;28;20442;-93
2021/03/20 06:26:06;;;;;;;9.33;7.50;;;-0.40;99.90;;;;;;5032423;28;20558;-91
2021/03/20 06:28:38;;;;;;;10.27;7.50;;;-0.40;99.90;;;;;;5037215;28;20466;-93
2021/03/20 06:31:17;;;;;;;11.63;6.97;;;-0.30;99.90;;;;;;5037478;28;20443;-95
2021/03/20 06:33:49;;;;;;;8.60;6.60;;;0.50;99.90;;;;;;5034784;28;20482;-94
2021/03/20 06:36:24;;;;;;;10.63;7.53;;;-0.40;99.90;;;;;;5035450;28;20491;-93
2021/03/20 06:38:58;;;;;;;7.87;6.57;;;-0.20;99.90;;;;;;5037557;28;20495;-94
2021/03/20 06:41:33;;;;;;;9.83;6.57;;;-1.00;99.90;;;;;;5037316;28;20431;-92
2021/03/20 06:44:01;;;;;;;8.90;6.20;;;-0.10;99.90;;;;;;5032300;28;20458;-93
2021/03/20 06:46:35;;;;;;;7.70;5.90;;;-0.20;99.90;;;;;;5034671;28;20801;-92
2021/03/20 06:49:19;;;;;;;7.60;5.87;;;-0.10;99.90;;;;;;5034861;28;20467;-94
2021/03/20 06:51:46;;;;;;;7.10;5.20;;;-0.20;99.90;;;;;;5034419;28;20461;-92
2021/03/20 06:54:16;;;;;;;10.23;5.43;;;-0.10;99.90;;;;;;5030929;28;20489;-94
2021/03/20 06:56:44;;;;;;;6.30;5.13;;;-0.10;99.90;;;;;;5033303;28;20447;-92
2021/03/20 06:59:12;;;;;;;9.87;5.10;;;-0.30;99.90;;;;;;5026261;28;20833;-93
2021/03/20 07:01:49;;;;;;;6.40;4.60;;;0.40;99.90;;;;;;5033672;28;20447;-91
2021/03/20 07:04:44;;;;;;;6.17;4.93;;;0.20;99.90;;;;;;5033655;28;20435;-92
2021/03/20 07:07:28;;;;;;;5.53;4.77;;;0.00;99.90;;;;;;5033103;28;20467;-91
2021/03/20 07:09:55;;;;;;;7.40;4.77;;;0.10;99.90;;;;;;5033707;28;20461;-90
2021/03/20 07:12:24;;;;;;;6.60;4.37;;;0.10;99.90;;;;;;5032812;28;20499;-90
2021/03/20 07:14:53;;;;;;;4.57;4.10;;;0.00;99.90;;;;;;5035590;28;20506;-93
2021/03/20 07:17:32;;;;;;;6.47;4.13;;;0.20;99.90;;;;;;5037376;28;20462;-92
2021/03/20 07:20:00;;;;;;;6.47;4.03;;;0.40;99.90;;;;;;5034867;28;20432;-89
2021/03/20 07:22:35;;;;;;;7.40;4.60;;;0.30;99.90;;;;;;5033764;28;20463;-91
2021/03/20 07:25:20;;;;;;;5.40;4.07;;;0.50;99.90;;;;;;5037054;28;20442;-90
2021/03/20 07:27:46;;;;;;;5.57;3.93;;;0.70;99.90;;;;;;5035666;28;20498;-89
2021/03/20 07:30:41;;;;;;;4.20;3.73;;;1.30;99.90;;;;;;5036288;28;20432;-89
2021/03/20 07:33:32;;;;;;;6.07;3.87;;;1.10;99.90;;;;;;5033624;28;20534;-90
2021/03/20 07:36:35;;;;;;;3.90;3.13;;;1.20;99.90;;;;;;5030978;28;20444;-92
2021/03/20 07:39:15;;;;;;;3.90;2.97;;;1.40;99.90;;;;;;5030228;28;20454;-94
2021/03/20 07:41:55;;;;;;;7.30;3.30;;;2.20;99.90;;;;;;5033953;28;20801;-91
2021/03/20 07:44:23;;;;;;;4.77;3.70;;;2.40;99.90;;;;;;5036611;28;20462;-90
2021/03/20 07:46:49;;;;;;;3.47;3.07;;;2.40;99.90;;;;;;5036700;28;20455;-90
2021/03/20 07:49:31;;;;;;;5.53;3.90;;;2.60;99.90;;;;;;5037276;28;20815;-91
2021/03/20 07:52:00;;;;;;;6.50;4.67;;;2.10;99.90;;;;;;5036943;28;20618;-93
2021/03/20 07:54:48;;;;;;;6.33;3.93;;;2.20;99.90;;;;;;5044139;28;20481;-94
2021/03/20 07:57:19;;;;;;;6.03;4.30;;;2.20;99.90;;;;;;5036941;28;20440;-94
2021/03/20 07:59:47;;;;;;;8.40;5.50;;;2.10;99.90;;;;;;5037301;28;20459;-93
2021/03/20 08:02:28;;;;;;;4.80;3.90;;;1.70;99.90;;;;;;5037215;28;20447;-92
2021/03/20 08:04:57;;;;;;;6.27;5.10;;;1.80;99.90;;;;;;5034009;28;20463;-92
2021/03/20 08:07:37;;;;;;;4.40;4.00;;;2.10;99.90;;;;;;5040407;28;20467;-95
2021/03/20 08:10:26;;;;;;;5.03;4.10;;;2.50;99.90;;;;;;5041443;28;20471;-93
2021/03/20 08:13:30;;;;;;;4.00;3.60;;;2.30;99.90;;;;;;5036464;28;20454;-94
2021/03/20 08:15:57;;;;;;;12.87;7.03;;;;;;;;;;5036720;28;20451;-89
2021/03/20 08:18:26;;;;;;;7.13;5.37;;;1.70;99.90;;;;;;5037402;28;20434;-91
2021/03/20 08:21:36;;;;;;;7.60;4.10;;;1.30;99.90;;;;;;5042237;28;20503;-90
2021/03/20 08:24:21;;;;;;;4.90;4.17;;;1.80;99.90;;;;;;5038202;28;20470;-92
2021/03/20 08:26:56;;;;;;;3.90;3.50;;;1.60;99.90;;;;;;5031154;28;20443;-89
2021/03/20 08:29:50;;;;;;;4.90;3.23;;;1.80;99.90;;;;;;5038259;28;20443;-95
2021/03/20 08:32:24;;;;;;;5.27;3.40;;;2.30;99.90;;;;;;5044872;28;20449;-93
2021/03/20 08:35:02;;;;;;;4.20;3.23;;;3.60;99.90;;;;;;5038549;28;20566;-92
2021/03/20 08:37:44;;;;;;;3.07;2.40;;;3.60;99.90;;;;;;5038576;28;20486;-90
2021/03/20 08:40:25;;;;;;;2.30;2.10;;;3.20;99.90;;;;;;5034015;28;20949;-88
2021/03/20 08:43:15;;;;;;;3.80;2.90;;;3.20;99.90;;;;;;5031666;28;20448;-92
2021/03/20 08:45:55;;;;;;;3.10;2.70;;;2.60;99.90;;;;;;5038686;28;20447;-93
2021/03/20 08:48:31;;;;;;;2.40;2.20;;;2.30;99.90;;;;;;5005743;28;20483;-89
2021/03/20 08:51:08;;;;;;;2.73;2.53;;;2.60;99.90;;;;;;5025314;28;20477;-90
2021/03/20 08:53:45;;;;;;;2.93;2.57;;;3.40;99.90;;;;;;5038013;28;20474;-91
2021/03/20 08:56:24;;;;;;;2.47;1.93;;;4.80;99.90;;;;;;5034157;28;20447;-90
2021/03/20 08:59:00;;;;;;;2.63;2.40;;;4.90;97.80;;;;;;5029199;28;20463;-89
2021/03/20 09:01:36;;;;;;;3.33;2.60;;;5.60;99.90;;;;;;5031078;28;20446;-89
2021/03/20 09:04:06;;;;;;;2.60;1.97;;;5.80;94.80;;;;;;5033845;28;20454;-87
2021/03/20 09:06:36;;;;;;;2.67;2.07;;;5.90;92.30;;;;;;5033521;28;20470;-88
2021/03/20 09:09:10;;;;;;;3.17;2.30;;;5.40;95.30;;;;;;5034909;28;20938;-91
2021/03/20 09:11:45;;;;;;;2.07;1.97;;;5.60;92.50;;;;;;5034564;28;20902;-92
2021/03/20 09:14:18;;;;;;;3.47;2.40;;;5.00;91.30;;;;;;5034963;28;20482;-93
2021/03/20 09:16:49;;;;;;;3.20;2.20;;;4.20;93.60;;;;;;5035148;28;20510;-92
2021/03/20 09:19:26;;;;;;;2.23;2.00;;;3.80;94.00;;;;;;5032698;28;20452;-91
2021/03/20 09:21:57;;;;;;;2.40;2.17;;;4.80;94.10;;;;;;5031733;28;20485;-90
2021/03/20 09:24:26;;;;;;;2.60;2.30;;;5.40;93.40;;;;;;5034481;28;20452;-86
2021/03/20 09:26:56;;;;;;;4.30;2.80;;;5.50;99.90;;;;;;5033582;28;20452;-93
2021/03/20 09:29:26;;;;;;;4.33;2.53;;;5.50;93.50;;;;;;5035921;28;20447;-91
2021/03/20 09:32:10;;;;;;;4.57;2.70;;;5.20;92.30;;;;;;4994814;28;20446;-89
2021/03/20 09:34:42;;;;;;;2.70;2.50;;;5.00;92.30;;;;;;4994071;28;20639;-91
2021/03/20 09:37:54;;;;;;;3.37;2.80;;;5.40;92.80;;;;;;5003802;28;20555;-93
2021/03/20 09:40:44;;;;;;;2.20;2.00;;;5.10;93.00;;;;;;5012692;28;20473;-90
2021/03/20 09:43:28;;;;;;;2.57;2.30;;;6.80;91.40;;;;;;5010970;28;20441;-89
2021/03/20 09:46:40;;;;;;;2.30;2.10;;;6.80;90.10;;;;;;5012576;28;20456;-92
2021/03/20 09:49:38;;;;;;;2.50;2.10;;;6.70;89.00;;;;;;4993134;28;20468;-92
2021/03/20 09:52:06;;;;;;;4.43;2.87;;;6.80;89.50;;;;;;5022958;28;20502;-94
2021/03/20 09:54:42;;;;;;;8.30;2.77;;;7.90;93.80;;;;;;5025076;28;20494;-94
2021/03/20 09:57:46;;;;;;;2.20;2.00;;;7.90;87.10;;;;;;5020760;28;20448;-93
2021/03/20 10:00:35;;;;;;;3.23;2.70;;;8.60;80.90;;;;;;5023887;28;20455;-93
2021/03/20 10:03:01;;;;;;;2.63;2.10;;;9.80;80.80;;;;;;5023225;28;20459;-92
2021/03/20 10:05:31;;;;;;;2.20;1.83;;;9.70;74.80;;;;;;5026712;28;20477;-94
2021/03/20 10:08:00;;;;;;;2.30;1.83;;;9.40;68.80;;;;;;5024088;28;20479;-94
2021/03/20 10:10:45;;;;;;;5.27;2.17;;;8.20;67.10;;;;;;5027484;28;20452;-93
2021/03/20 10:13:22;;;;;;;2.30;2.10;;;8.40;72.40;;;;;;5026488;28;20441;-93
2021/03/20 10:15:56;;;;;;;2.60;2.40;;;8.30;76.80;;;;;;5023764;28;20860;-93
2021/03/20 10:18:35;;;;;;;2.20;1.90;;;8.50;78.30;;;;;;5025573;28;20454;-93
2021/03/20 10:23:41;;;;;;;2.20;2.00;;;8.00;65.70;;;;;;5066380;23;20533;-94
2021/03/20 10:26:36;;;;;;;5.33;2.10;;;8.20;73.20;;;;;;5046604;28;20205;-92
2021/03/20 10:29:06;;;;;;;2.23;1.73;;;8.50;72.70;;;;;;5047696;28;20478;-92
2021/03/20 10:31:40;;;;;;;2.57;1.80;;;8.90;68.20;;;;;;5044078;28;20472;-93
2021/03/20 10:34:09;;;;;;;2.60;2.40;;;9.00;67.00;;;;;;5043541;28;20475;-92
2021/03/20 10:36:40;;;;;;;2.53;2.10;;;8.20;63.20;;;;;;5046251;28;20475;-92
2021/03/20 10:39:26;;;;;;;4.13;2.10;;;9.20;67.50;;;;;;5047387;28;20444;-92
2021/03/20 10:41:55;;;;;;;4.87;2.23;;;9.30;65.30;;;;;;5043840;28;20447;-94
2021/03/20 10:44:25;;;;;;;2.20;2.10;;;9.30;70.50;;;;;;5046855;28;20451;-92
2021/03/20 10:47:01;;;;;;;2.43;2.17;;;9.30;67.50;;;;;;5045243;28;20497;-93
2021/03/20 10:49:28;;;;;;;2.33;2.13;;;8.90;70.30;;;;;;5044320;28;20458;-91
2021/03/20 10:51:57;;;;;;;2.67;2.30;;;8.80;66.80;;;;;;5047004;28;20470;-91
2021/03/20 10:54:30;;;;;;;2.73;2.33;;;7.90;67.40;;;;;;5051354;28;20536;-92
2021/03/20 10:57:02;;;;;;;3.23;2.23;;;7.90;67.90;;;;;;5048389;28;20442;-90
2021/03/20 10:59:33;;;;;;;5.90;2.27;;;7.40;70.00;;;;;;5048495;28;20451;-91
2021/03/20 11:02:19;;;;;;;4.40;2.40;;;7.70;69.80;;;;;;5042503;28;20446;-91
2021/03/20 11:04:46;;;;;;;2.67;2.00;;;7.20;80.60;;;;;;5045069;28;20458;-92
2021/03/20 11:07:17;;;;;;;3.10;2.00;;;7.00;65.00;;;;;;5038913;28;20478;-93
2021/03/20 11:09:44;;;;;;;2.60;2.10;;;7.90;67.90;;;;;;5048396;28;20439;-93
2021/03/20 11:12:14;;;;;;;2.37;2.07;;;8.10;69.60;;;;;;5045047;28;20903;-93
2021/03/20 11:14:49;;;;;;;2.23;2.03;;;8.00;62.40;;;;;;5045964;28;20495;-93
2021/03/20 11:17:20;;;;;;;2.60;2.40;;;8.70;67.70;;;;;;5045147;28;20473;-92
2021/03/20 11:19:48;;;;;;;3.00;2.40;;;9.00;69.90;;;;;;5046889;28;20451;-93
2021/03/20 11:22:20;;;;;;;2.50;2.30;;;8.70;69.40;;;;;;5048001;28;20491;-92
2021/03/20 11:24:54;;;;;;;3.27;2.77;;;7.20;65.80;;;;;;5048369;28;20439;-95
2021/03/20 11:27:23;;;;;;;2.87;2.27;;;7.40;68.40;;;;;;5044705;28;20449;-93
2021/03/20 11:29:52;;;;;;;3.13;2.33;;;8.00;68.50;;;;;;5048044;28;20462;-92
2021/03/20 11:32:28;;;;;;;2.60;2.40;;;7.60;66.80;;;;;;5049000;28;20454;-93
2021/03/20 11:35:08;;;;;;;3.20;2.43;;;8.30;71.30;;;;;;5045196;28;20509;-92
2021/03/20 11:37:35;;;;;;;3.47;2.23;;;;;;;;;;5042015;28;20470;-93
2021/03/20 11:40:06;;;;;;;4.40;2.63;;;8.90;65.40;;;;;;5039543;28;20451;-92
2021/03/20 11:42:38;;;;;;;2.77;2.40;;;6.20;65.20;;;;;;5036438;28;20459;-95
2021/03/20 11:45:09;;;;;;;6.00;2.43;;;6.70;68.70;;;;;;5038009;28;20447;-93
2021/03/20 11:47:37;;;;;;;3.00;2.70;;;7.30;64.40;;;;;;4962603;29;20462;-94
2021/03/20 11:50:14;;;;;;;4.50;2.70;;;7.80;75.00;;;;;;4961688;29;20451;-93
2021/03/20 11:52:49;;;;;;;2.73;2.40;;;8.30;65.80;;;;;;4960467;28;20852;-94
2021/03/20 11:55:20;;;;;;;2.87;2.20;;;8.10;63.50;;;;;;4957789;29;20577;-93
2021/03/20 11:57:48;;;;;;;3.03;2.73;;;8.20;62.60;;;;;;4957169;29;20454;-93
2021/03/20 12:00:41;;;;;;;4.10;2.37;;;7.90;70.60;;;;;;4956372;28;20928;-93
2021/03/20 12:03:28;;;;;;;3.17;2.50;;;8.80;77.40;;;;;;4958305;29;20474;-94
2021/03/20 12:06:20;;;;;;;2.80;2.50;;;7.60;65.40;;;;;;5003913;28;21020;-94
2021/03/20 12:08:48;;;;;;;2.93;2.30;;;7.70;65.80;;;;;;5035020;28;20446;-94
2021/03/20 12:11:16;;;;;;;4.97;2.40;;;6.60;66.60;;;;;;5030597;28;20444;-95
2021/03/20 12:13:49;;;;;;;3.47;2.83;;;7.50;67.00;;;;;;5034141;28;20501;-95
2021/03/20 12:16:32;;;;;;;3.23;2.67;;;7.50;72.00;;;;;;5034547;28;20455;-93
2021/03/20 12:19:11;;;;;;;3.17;2.33;;;7.80;73.40;;;;;;5034667;28;20478;-92
2021/03/20 12:22:01;;;;;;;5.00;2.93;;;8.10;74.80;;;;;;5033698;28;20528;-94
2021/03/20 12:24:30;;;;;;;4.97;3.03;;;8.40;71.50;;;;;;5033073;28;21004;-93
2021/03/20 12:27:22;;;;;;;4.50;2.90;;;7.70;74.20;;;;;;5035680;28;20569;-93
2021/03/20 12:29:49;;;;;;;4.50;2.73;;;8.10;74.80;;;;;;5033886;28;20478;-93
2021/03/20 12:32:25;;;;;;;4.40;2.80;;;7.10;69.90;;;;;;5036889;28;20513;-92
2021/03/20 12:34:52;;;;;;;5.03;2.93;;;6.40;72.60;;;;;;5033023;28;20497;-93
2021/03/20 12:37:22;;;;;;;3.03;2.83;;;7.00;75.80;;;;;;5033488;28;20436;-94
2021/03/20 12:39:49;;;;;;;3.87;2.63;;;8.00;74.10;;;;;;5036356;28;20452;-92
2021/03/20 12:42:17;;;;;;;4.27;2.80;;;8.80;72.00;;;;;;5033124;28;20451;-94
2021/03/20 12:44:47;;;;;;;3.70;3.03;;;8.30;72.70;;;;;;5030554;28;20432;-94
2021/03/20 12:47:16;;;;;;;6.80;3.27;;;7.90;69.50;;;;;;5036562;28;20550;-90
2021/03/20 12:49:43;;;;;;;4.47;2.73;;;7.10;72.40;;;;;;5033503;28;20808;-92
2021/03/20 12:52:14;;;;;;;3.20;2.90;;;8.00;74.20;;;;;;5035966;28;20444;-94
2021/03/20 12:54:43;;;;;;;3.20;2.90;;;8.80;72.90;;;;;;4956091;29;20498;-95
2021/03/20 12:57:19;;;;;;;4.20;3.67;;;8.40;63.30;;;;;;4953407;29;21005;-93
2021/03/20 12:59:46;;;;;;;3.70;3.20;;;;;;;;;;4957067;29;20453;-95
2021/03/20 13:02:13;;;;;;;4.80;2.90;;;7.30;71.10;;;;;;4952885;29;20470;-95
2021/03/20 13:04:40;;;;;;;6.63;2.67;;;8.20;70.50;;;;;;4957870;29;20471;-93
2021/03/20 13:07:08;;;;;;;3.70;3.10;;;8.30;70.10;;;;;;4958009;29;20451;-92
2021/03/20 13:09:36;;;;;;;5.43;2.80;;;7.70;73.10;;;;;;4955071;29;20455;-92
2021/03/20 13:12:28;;;;;;;3.53;2.90;;;8.20;81.60;;;;;;4973417;28;20451;-94
2021/03/20 13:14:55;;;;;;;4.07;2.83;;;;;;;;;;5036912;28;20519;-95
2021/03/20 13:17:24;;;;;;;2.47;2.27;;;;;;;;;;5039831;28;20444;-92
2021/03/20 13:19:52;;;;;;;4.57;2.70;;;9.00;75.70;;;;;;5032834;28;20435;-92
2021/03/20 13:22:19;;;;;;;3.60;2.90;;;;;;;;;;5037738;28;20463;-92
2021/03/20 13:24:45;;;;;;;2.77;2.53;;;;;;;;;;5034903;28;20455;-94
2021/03/20 13:27:12;;;;;;;3.73;3.00;;;;;;;;;;5039629;28;20494;-94
2021/03/20 13:29:39;;;;;;;3.13;2.83;;;9.50;63.80;;;;;;5034464;28;20424;-94
2021/03/20 13:32:07;;;;;;;3.27;2.97;;;9.80;67.70;;;;;;5037702;28;20463;-94
2021/03/20 13:34:34;;;;;;;4.37;3.63;;;;;;;;;;5032238;28;20483;-94
2021/03/20 13:37:00;;;;;;;3.37;2.97;;;;;;;;;;5038286;28;20503;-94
2021/03/20 13:39:27;;;;;;;2.97;2.27;;;;;;;;;;5040216;28;20457;-93